createdAt,value
2022-10-18T00:26:07.254Z,14.94
2022-10-18T00:47:57.201Z,18.38
2022-10-18T01:09:48.425Z,17.53
2022-10-18T01:41:04.281Z,14.59
2022-10-18T02:02:53.886Z,17.75
2022-10-18T02:24:44.610Z,17.83
2022-10-18T02:46:30.463Z,14.87
2022-10-18T03:08:16.280Z,17.47
2022-10-18T03:30:02.158Z,17.26
2022-10-18T03:51:47.825Z,14.44
2022-10-18T04:13:33.606Z,17.34
2022-10-18T04:35:19.900Z,16.65
2022-10-18T04:57:06.080Z,17.75
2022-10-18T05:18:51.917Z,16.67
2022-10-18T05:40:39.336Z,18.08
2022-10-18T06:02:25.101Z,17.14
2022-10-18T06:24:11.378Z,14.15
2022-10-18T06:45:57.382Z,18.00
2022-10-18T07:07:43.227Z,17.88
2022-10-18T07:29:29.065Z,16.33
2022-10-18T07:51:15.304Z,19.71
2022-10-18T08:13:00.971Z,22.96
2022-10-18T08:34:46.745Z,30.06
2022-10-18T08:56:34.132Z,34.88
2022-10-18T09:18:47.532Z,38.86
2022-10-18T09:40:39.662Z,40.60
2022-10-18T10:02:26.062Z,38.56
2022-10-18T10:24:24.995Z,37.51
2022-10-18T10:46:16.187Z,29.92
2022-10-18T11:08:06.166Z,26.61
2022-10-18T11:30:05.300Z,24.43
2022-10-18T11:52:08.340Z,23.86
2022-10-18T12:13:59.022Z,23.90
2022-10-18T12:35:56.420Z,23.59
2022-10-18T12:58:06.075Z,23.07
2022-10-18T13:20:23.964Z,22.68
2022-10-18T13:42:34.209Z,22.88
2022-10-18T14:05:10.796Z,22.84
2022-10-18T14:27:19.307Z,21.65
2022-10-18T14:49:07.870Z,20.98
2022-10-18T15:10:54.884Z,20.85
2022-10-18T15:32:48.359Z,20.40
2022-10-18T15:54:34.083Z,18.87
2022-10-18T16:16:22.989Z,19.58
2022-10-18T16:38:14.861Z,20.02
2022-10-18T17:00:00.659Z,22.33
2022-10-18T17:21:46.552Z,19.77
2022-10-18T17:43:32.399Z,20.36
2022-10-18T18:05:18.162Z,22.28
2022-10-18T18:27:03.939Z,19.75
2022-10-18T18:48:51.398Z,20.10
2022-10-18T19:10:37.526Z,22.04
2022-10-18T19:32:23.329Z,17.94
2022-10-18T19:54:09.140Z,19.40
2022-10-18T20:26:06.497Z,21.47
2022-10-18T20:47:52.237Z,19.07
2022-10-18T21:09:37.966Z,21.21
2022-10-18T21:41:11.192Z,19.40
2022-10-18T22:03:10.283Z,21.15
2022-10-18T22:24:56.437Z,21.68
2022-10-18T22:46:45.572Z,18.64
2022-10-18T23:26:00.805Z,20.92
2022-10-18T23:47:46.536Z,16.91
